KROX/ROX METAR and TAF weather

Enter ICAO airport designator
Station Type Date Time Source
KROX METAR 2020/01/26 18:56 UTC NOAA

KROX 261856Z AUTO 36003KT 3SM BR OVC002 M06/M08 A2995 RMK AO2


Station Type Date Time Source
KROX Decoded METAR 2020/01/26 18:56 UTC NOAA

Roseau, Roseau Municipal Airport/Rudy Billberg Field, MN, United States (KROX) 48-51N 095-42W
Jan 26, 2020 - 01:56 PM EST / 2020.01.26 1856 UTC
Wind: from the N (360 degrees) at 3 MPH (3 KT):0
Visibility: 3 mile(s):0
Sky conditions: overcast
Weather: mist
Temperature: 21 F (-6 C)
Dew Point: 17 F (-8 C)
Relative Humidity: 85%
Pressure (altimeter): 29.95 in. Hg (1014 hPa)
ob: KROX 261856Z AUTO 36003KT 3SM BR OVC002 M06/M08 A2995 RMK AO2
cycle: 19

Station Type Date Time Source
KROX TAF UTC NOAA

Error!

Example: see airport list